createdAt,value
2022-11-10T00:01:21.232Z,1.00
2022-11-10T00:03:52.054Z,1.10
2022-11-10T00:06:21.482Z,1.40
2022-11-10T00:08:50.843Z,1.20
2022-11-10T00:11:20.174Z,1.40
2022-11-10T00:14:09.140Z,1.50
2022-11-10T00:16:57.350Z,1.10
2022-11-10T00:19:26.680Z,1.70
2022-11-10T00:21:56.174Z,1.60
2022-11-10T00:24:26.705Z,1.80
2022-11-10T00:26:57.213Z,1.40
2022-11-10T00:29:26.586Z,1.50
2022-11-10T00:31:56.074Z,1.30
2022-11-10T00:34:26.571Z,1.60
2022-11-10T00:36:56.179Z,2.00
2022-11-10T00:39:26.053Z,1.70
2022-11-10T00:41:56.049Z,1.60
2022-11-10T00:44:25.388Z,1.30
2022-11-10T00:46:54.884Z,1.70
2022-11-10T00:49:24.428Z,1.20
2022-11-10T00:51:54.066Z,1.20
2022-11-10T00:54:23.422Z,1.30
2022-11-10T00:56:52.797Z,1.50
2022-11-10T00:59:22.697Z,1.60
2022-11-10T01:01:52.193Z,1.60
2022-11-10T01:04:21.423Z,1.80
2022-11-10T01:06:50.815Z,1.70
2022-11-10T01:09:21.030Z,1.70
2022-11-10T01:11:50.655Z,1.90
2022-11-10T01:14:20.124Z,2.90
2022-11-10T01:16:49.435Z,2.30
2022-11-10T01:19:18.618Z,2.20
2022-11-10T01:21:49.123Z,1.70
2022-11-10T01:24:23.029Z,2.30
2022-11-10T01:26:52.235Z,1.70
2022-11-10T01:29:21.893Z,1.90
2022-11-10T01:31:51.435Z,1.70
2022-11-10T01:34:21.052Z,2.00
2022-11-10T01:36:50.370Z,2.20
2022-11-10T01:39:20.206Z,1.70
2022-11-10T01:41:50.521Z,2.30
2022-11-10T01:44:26.670Z,2.00
2022-11-10T01:46:56.558Z,2.00
2022-11-10T01:49:29.530Z,1.90
2022-11-10T01:52:16.204Z,2.30
2022-11-10T01:54:51.360Z,1.80
2022-11-10T01:57:21.056Z,1.80
2022-11-10T01:59:52.271Z,2.60
2022-11-10T02:02:36.622Z,2.30
2022-11-10T02:05:07.138Z,1.80
2022-11-10T02:07:37.297Z,1.90
2022-11-10T02:10:15.108Z,2.20
2022-11-10T02:12:44.611Z,1.80
2022-11-10T02:15:18.498Z,2.30
2022-11-10T02:17:51.478Z,2.30
2022-11-10T02:20:23.182Z,2.20
2022-11-10T02:22:54.016Z,2.20
2022-11-10T02:25:30.217Z,2.60
2022-11-10T02:27:59.484Z,2.40
2022-11-10T02:30:29.057Z,2.50
2022-11-10T02:32:58.499Z,2.30
2022-11-10T02:35:27.767Z,2.30
2022-11-10T02:37:56.923Z,2.90
2022-11-10T02:40:26.082Z,2.10
2022-11-10T02:42:55.264Z,2.80
2022-11-10T02:45:24.837Z,2.00
2022-11-10T02:47:54.331Z,2.00
2022-11-10T02:50:24.049Z,2.60
2022-11-10T02:52:53.316Z,1.90
2022-11-10T02:55:22.670Z,2.70
2022-11-10T02:57:54.753Z,2.20
2022-11-10T03:00:24.785Z,1.80
2022-11-10T03:03:05.004Z,1.60
2022-11-10T03:05:35.270Z,2.00
2022-11-10T03:08:06.115Z,2.10
2022-11-10T03:10:36.086Z,1.20
2022-11-10T03:13:05.607Z,2.00
2022-11-10T03:15:35.058Z,2.00
2022-11-10T03:18:08.306Z,2.00
2022-11-10T03:20:37.720Z,1.50
2022-11-10T03:23:07.843Z,1.30
2022-11-10T03:25:38.644Z,1.90
2022-11-10T03:28:08.322Z,1.80
2022-11-10T03:30:38.322Z,1.50
2022-11-10T03:33:08.259Z,1.80
2022-11-10T03:35:37.835Z,1.50
2022-11-10T03:38:07.235Z,1.50
2022-11-10T03:40:56.982Z,1.40
2022-11-10T03:43:27.345Z,1.40
2022-11-10T03:45:57.719Z,1.30
2022-11-10T03:48:27.271Z,1.70
2022-11-10T03:50:56.381Z,1.40
2022-11-10T03:53:25.799Z,1.50
2022-11-10T03:55:54.993Z,1.50
2022-11-10T03:58:24.467Z,1.80
2022-11-10T04:00:56.529Z,1.40
2022-11-10T04:03:26.148Z,1.20
2022-11-10T04:06:14.119Z,1.80
2022-11-10T04:09:01.551Z,1.50
2022-11-10T04:11:51.478Z,1.20
2022-11-10T04:14:39.300Z,1.10
2022-11-10T04:17:08.822Z,1.30
2022-11-10T04:19:37.788Z,1.70
2022-11-10T04:22:07.007Z,1.40
2022-11-10T04:24:36.662Z,1.40
2022-11-10T04:27:05.933Z,1.30
2022-11-10T04:29:35.458Z,1.40
2022-11-10T04:32:04.832Z,1.30
2022-11-10T04:34:33.935Z,1.50
2022-11-10T04:37:03.075Z,1.70
2022-11-10T04:39:32.337Z,1.30
2022-11-10T04:42:03.073Z,1.20
2022-11-10T04:44:32.581Z,1.80
2022-11-10T04:47:01.779Z,1.50
2022-11-10T04:49:31.010Z,1.70
2022-11-10T04:52:00.366Z,1.20
2022-11-10T04:54:29.754Z,0.80
2022-11-10T04:56:58.935Z,1.00
2022-11-10T04:59:28.547Z,1.50
2022-11-10T05:01:58.059Z,1.20
2022-11-10T05:04:28.019Z,0.80
2022-11-10T05:06:57.084Z,0.70
2022-11-10T05:09:26.978Z,0.90
2022-11-10T05:11:56.349Z,1.30
2022-11-10T05:14:25.670Z,1.80
2022-11-10T05:16:54.897Z,1.40
2022-11-10T05:19:24.263Z,1.20
2022-11-10T05:21:54.062Z,1.80
2022-11-10T05:24:23.524Z,1.80
2022-11-10T05:26:53.047Z,1.30
2022-11-10T05:29:22.539Z,0.90
2022-11-10T05:31:52.159Z,1.20
2022-11-10T05:34:21.539Z,0.90
2022-11-10T05:36:51.231Z,1.20
2022-11-10T05:39:20.721Z,1.30
2022-11-10T05:41:50.646Z,0.90
2022-11-10T05:44:19.874Z,0.90
2022-11-10T05:46:49.437Z,1.10
2022-11-10T05:49:18.938Z,0.90
2022-11-10T05:51:48.047Z,1.50
2022-11-10T05:54:17.479Z,0.80
2022-11-10T05:56:47.083Z,0.90
2022-11-10T05:59:16.261Z,0.80
2022-11-10T06:01:45.608Z,1.10
2022-11-10T06:04:14.983Z,1.10
2022-11-10T06:06:44.479Z,1.30
2022-11-10T06:09:13.902Z,1.00
2022-11-10T06:11:43.348Z,1.00
2022-11-10T06:14:12.351Z,1.00
2022-11-10T06:16:41.669Z,1.00
2022-11-10T06:19:11.124Z,0.80
2022-11-10T06:21:40.331Z,0.80
2022-11-10T06:24:11.648Z,0.80
2022-11-10T06:26:40.942Z,0.90
2022-11-10T06:29:10.208Z,0.80
2022-11-10T06:31:39.917Z,0.80
2022-11-10T06:34:09.596Z,0.80
2022-11-10T06:36:40.284Z,0.70
2022-11-10T06:39:09.227Z,0.90
2022-11-10T06:41:38.854Z,0.70
2022-11-10T06:44:08.336Z,0.70
2022-11-10T06:46:42.157Z,0.70
2022-11-10T06:49:11.769Z,0.60
2022-11-10T06:51:41.233Z,1.00
2022-11-10T06:54:10.685Z,1.40
2022-11-10T06:56:40.327Z,0.70
2022-11-10T06:59:09.796Z,0.80
2022-11-10T07:01:39.440Z,1.10
2022-11-10T07:04:24.068Z,1.00
2022-11-10T07:06:53.553Z,0.80
2022-11-10T07:09:23.071Z,0.70
2022-11-10T07:11:52.267Z,0.80
2022-11-10T07:14:21.561Z,1.30
2022-11-10T07:16:50.877Z,1.10
2022-11-10T07:19:20.120Z,1.30
2022-11-10T07:21:49.431Z,1.30
2022-11-10T07:24:18.490Z,0.90
2022-11-10T07:26:47.641Z,0.80
2022-11-10T07:29:17.219Z,0.80
2022-11-10T07:31:47.139Z,0.90
2022-11-10T07:34:16.571Z,0.90
2022-11-10T07:36:46.063Z,0.80
2022-11-10T07:39:16.092Z,0.60
2022-11-10T07:41:47.677Z,1.00
2022-11-10T07:44:20.885Z,1.00
2022-11-10T07:46:50.231Z,1.00
2022-11-10T07:49:19.752Z,0.90
2022-11-10T07:51:49.120Z,0.90
2022-11-10T07:54:18.873Z,0.70
2022-11-10T07:56:48.221Z,0.90
2022-11-10T07:59:17.638Z,0.80
2022-11-10T08:01:48.147Z,0.70
2022-11-10T08:04:17.394Z,1.00
2022-11-10T08:06:46.770Z,1.00
2022-11-10T08:09:16.369Z,0.70
2022-11-10T08:11:45.442Z,0.60
2022-11-10T08:14:14.671Z,0.60
2022-11-10T08:16:44.086Z,0.90
2022-11-10T08:19:13.464Z,0.80
2022-11-10T08:21:42.773Z,0.50
2022-11-10T08:24:13.216Z,0.60
2022-11-10T08:26:42.399Z,0.60
2022-11-10T08:29:11.672Z,0.60
2022-11-10T08:31:41.186Z,0.80
2022-11-10T08:34:10.533Z,0.80
2022-11-10T08:36:40.006Z,0.80
2022-11-10T08:39:09.672Z,0.50
2022-11-10T08:41:39.060Z,0.50
2022-11-10T08:44:11.003Z,0.60
2022-11-10T08:46:41.504Z,0.50
2022-11-10T08:49:11.387Z,0.50
2022-11-10T08:51:40.659Z,0.50
2022-11-10T08:54:09.911Z,0.70
2022-11-10T08:56:39.300Z,0.60
2022-11-10T08:59:08.995Z,0.70
2022-11-10T09:01:38.446Z,0.70
2022-11-10T09:04:07.849Z,0.70
2022-11-10T09:06:37.579Z,0.70
2022-11-10T09:09:08.499Z,0.80
2022-11-10T09:11:37.734Z,0.60
2022-11-10T09:14:06.849Z,0.40
2022-11-10T09:16:36.234Z,0.50
2022-11-10T09:19:05.436Z,0.50
2022-11-10T09:21:34.654Z,0.60
2022-11-10T09:24:04.121Z,0.70
2022-11-10T09:26:35.095Z,0.60
2022-11-10T09:29:04.792Z,0.70
2022-11-10T09:31:34.174Z,0.60
2022-11-10T09:34:03.409Z,0.50
2022-11-10T09:36:32.954Z,0.50
2022-11-10T09:39:02.335Z,0.50
2022-11-10T09:41:32.296Z,0.70
2022-11-10T09:44:12.808Z,0.50
2022-11-10T09:46:49.413Z,0.50
2022-11-10T09:50:02.510Z,0.80
2022-11-10T09:52:35.662Z,0.50
2022-11-10T09:55:27.387Z,0.50
2022-11-10T09:58:00.106Z,0.60
2022-11-10T10:00:34.960Z,0.50
2022-11-10T10:03:07.600Z,0.40
2022-11-10T10:06:06.847Z,0.60
2022-11-10T10:08:43.662Z,0.30
2022-11-10T10:11:45.466Z,0.40
2022-11-10T10:14:53.867Z,0.50
2022-11-10T10:17:47.438Z,0.70
2022-11-10T10:20:41.434Z,0.50
2022-11-10T10:24:10.413Z,0.50
2022-11-10T10:26:55.223Z,0.50
2022-11-10T10:29:52.924Z,0.60
2022-11-10T10:32:25.349Z,0.50
2022-11-10T10:34:54.625Z,0.50
2022-11-10T10:37:28.363Z,0.60
2022-11-10T10:39:58.190Z,0.60
2022-11-10T10:42:35.568Z,0.60
2022-11-10T10:45:22.490Z,0.70
2022-11-10T10:47:55.342Z,0.60
2022-11-10T10:50:36.266Z,0.60
2022-11-10T10:53:25.986Z,0.40
2022-11-10T10:56:06.920Z,0.60
2022-11-10T10:59:00.298Z,0.50
2022-11-10T11:01:40.153Z,0.50
2022-11-10T11:04:37.463Z,0.30
2022-11-10T11:07:22.752Z,1.00
2022-11-10T11:09:51.936Z,0.60
2022-11-10T11:12:23.892Z,0.70
2022-11-10T11:20:17.822Z,0.30
2022-11-10T11:23:06.510Z,0.50
2022-11-10T11:25:46.213Z,0.90
2022-11-10T11:28:39.600Z,0.60
2022-11-10T11:32:01.985Z,0.70
2022-11-10T11:34:44.680Z,0.50
2022-11-10T11:37:39.969Z,0.50
2022-11-10T11:40:36.471Z,0.60
2022-11-10T11:43:29.930Z,0.50
2022-11-10T11:46:11.011Z,0.80
2022-11-10T11:48:53.799Z,0.60
2022-11-10T11:52:02.107Z,0.50
2022-11-10T11:55:05.728Z,0.50
2022-11-10T11:57:58.731Z,0.60
2022-11-10T12:00:30.165Z,0.80
2022-11-10T12:03:57.321Z,0.70
2022-11-10T12:06:59.607Z,0.80
2022-11-10T12:09:43.340Z,0.60
2022-11-10T12:12:28.214Z,0.80
2022-11-10T12:15:33.000Z,0.60
2022-11-10T12:18:26.985Z,0.80
2022-11-10T12:21:41.102Z,0.60
2022-11-10T12:24:56.320Z,0.60
2022-11-10T12:27:44.035Z,0.40
2022-11-10T12:30:17.731Z,0.50
2022-11-10T12:33:06.381Z,0.50
2022-11-10T12:35:42.933Z,0.60
2022-11-10T12:38:18.019Z,0.70
2022-11-10T12:41:14.020Z,0.70
2022-11-10T12:44:14.808Z,0.80
2022-11-10T12:46:51.895Z,0.70
2022-11-10T12:49:34.448Z,0.60
2022-11-10T12:52:42.227Z,0.50
2022-11-10T12:55:16.076Z,0.60
2022-11-10T12:57:46.855Z,0.90
2022-11-10T13:00:33.527Z,0.80
2022-11-10T13:03:03.070Z,0.50
2022-11-10T13:05:43.177Z,0.50
2022-11-10T13:08:45.328Z,0.50
2022-11-10T13:11:14.602Z,0.90
2022-11-10T13:14:01.246Z,0.70
2022-11-10T13:16:48.859Z,0.60
2022-11-10T13:19:27.052Z,0.60
2022-11-10T13:22:11.558Z,0.70
2022-11-10T13:24:45.302Z,0.80
2022-11-10T13:27:47.575Z,0.70
2022-11-10T13:30:46.066Z,0.60
2022-11-10T13:33:31.751Z,0.70
2022-11-10T13:36:01.239Z,0.60
2022-11-10T13:38:44.074Z,0.70
2022-11-10T13:41:19.415Z,0.70
2022-11-10T13:43:57.476Z,0.70
2022-11-10T13:46:47.580Z,0.40
2022-11-10T13:49:54.709Z,0.50
2022-11-10T13:53:10.014Z,1.00
2022-11-10T13:56:04.483Z,0.60
2022-11-10T13:58:36.797Z,0.60
2022-11-10T14:01:28.038Z,0.80
2022-11-10T14:04:04.959Z,0.70
2022-11-10T14:06:50.801Z,0.60
2022-11-10T14:09:41.111Z,1.00
2022-11-10T14:12:57.210Z,0.70
2022-11-10T14:15:55.495Z,0.60
2022-11-10T14:18:30.116Z,0.60
2022-11-10T14:21:02.605Z,0.80
2022-11-10T14:24:05.557Z,0.60
2022-11-10T14:26:43.475Z,0.70
2022-11-10T14:29:39.635Z,0.50
2022-11-10T14:32:22.491Z,0.60
2022-11-10T14:34:56.690Z,0.70
2022-11-10T14:37:31.144Z,0.80
2022-11-10T14:40:03.970Z,0.70
2022-11-10T14:42:35.690Z,0.70
2022-11-10T14:45:22.630Z,0.70
2022-11-10T14:47:58.035Z,0.60
2022-11-10T14:50:37.334Z,0.80
2022-11-10T14:53:30.863Z,0.70
2022-11-10T14:56:04.766Z,0.60
2022-11-10T14:58:44.189Z,0.80
2022-11-10T15:01:34.708Z,0.80
2022-11-10T15:04:15.592Z,1.10
2022-11-10T15:06:47.308Z,0.80
2022-11-10T15:10:02.325Z,0.60
2022-11-10T15:12:31.664Z,0.70
2022-11-10T15:15:02.636Z,0.60
2022-11-10T15:17:53.417Z,1.00
2022-11-10T15:20:36.924Z,0.70
2022-11-10T15:23:37.612Z,0.70
2022-11-10T15:26:22.173Z,0.70
2022-11-10T15:28:52.752Z,0.70
2022-11-10T15:31:32.953Z,0.90
2022-11-10T15:34:06.300Z,1.00
2022-11-10T15:36:42.865Z,0.60
2022-11-10T15:39:16.833Z,0.50
2022-11-10T15:41:49.647Z,0.80
2022-11-10T15:44:31.921Z,0.80
2022-11-10T15:47:01.597Z,0.60
2022-11-10T15:49:38.571Z,0.80
2022-11-10T15:52:26.957Z,0.60
2022-11-10T15:54:58.911Z,0.80
2022-11-10T15:57:28.195Z,0.70
2022-11-10T15:59:58.247Z,0.70
2022-11-10T16:02:28.412Z,0.70
2022-11-10T16:05:00.034Z,0.80
2022-11-10T16:07:29.705Z,0.70
2022-11-10T16:09:59.024Z,0.60
2022-11-10T16:12:30.324Z,0.70
2022-11-10T16:15:00.754Z,0.80
2022-11-10T16:17:29.995Z,0.70
2022-11-10T16:19:59.756Z,0.70
2022-11-10T16:22:29.039Z,1.00
2022-11-10T16:24:58.424Z,0.50
2022-11-10T16:27:28.091Z,0.50
2022-11-10T16:29:57.316Z,0.60
2022-11-10T16:32:26.664Z,0.80
2022-11-10T16:34:56.220Z,0.80
2022-11-10T16:37:25.637Z,0.80
2022-11-10T16:39:55.429Z,1.00
2022-11-10T16:42:25.678Z,0.50
2022-11-10T16:44:54.850Z,0.60
2022-11-10T16:47:24.258Z,0.70
2022-11-10T16:49:53.544Z,0.80
2022-11-10T16:52:23.922Z,0.50
2022-11-10T16:54:53.452Z,0.70
2022-11-10T16:57:22.549Z,0.90
2022-11-10T16:59:51.652Z,0.90
2022-11-10T17:03:28.731Z,0.50
2022-11-10T17:05:58.410Z,0.50
2022-11-10T17:08:31.947Z,0.60
2022-11-10T17:11:02.704Z,0.70
2022-11-10T17:13:32.437Z,1.00
2022-11-10T17:16:13.934Z,0.60
2022-11-10T17:18:44.991Z,0.60
2022-11-10T17:21:15.950Z,0.50
2022-11-10T17:23:45.416Z,0.90
2022-11-10T17:26:17.451Z,0.60
2022-11-10T17:28:47.119Z,2.60
2022-11-10T17:31:17.201Z,1.20
2022-11-10T17:33:46.845Z,0.80
2022-11-10T17:36:25.236Z,0.70
2022-11-10T17:38:55.253Z,0.90
2022-11-10T17:41:24.678Z,0.50
2022-11-10T17:43:54.484Z,0.50
2022-11-10T17:46:24.313Z,0.60
2022-11-10T17:49:01.611Z,1.20
2022-11-10T17:51:35.821Z,0.60
2022-11-10T17:54:07.044Z,0.50
2022-11-10T17:56:36.487Z,0.60
2022-11-10T17:59:06.185Z,0.80
2022-11-10T18:01:35.924Z,0.60
2022-11-10T18:04:06.383Z,1.00
2022-11-10T18:06:36.203Z,0.80
2022-11-10T18:09:05.706Z,0.90
2022-11-10T18:11:35.229Z,0.90
2022-11-10T18:14:04.767Z,0.80
2022-11-10T18:16:34.805Z,0.60
2022-11-10T18:19:04.357Z,0.70
2022-11-10T18:21:33.781Z,1.10
2022-11-10T18:24:03.293Z,0.80
2022-11-10T18:26:33.033Z,0.80
2022-11-10T18:29:02.292Z,0.90
2022-11-10T18:31:31.723Z,0.80
2022-11-10T18:34:01.277Z,0.70
2022-11-10T18:36:30.720Z,1.30
2022-11-10T18:39:00.204Z,0.90
2022-11-10T18:41:48.011Z,0.80
2022-11-10T18:44:21.604Z,0.60
2022-11-10T18:46:51.160Z,0.80
2022-11-10T18:49:21.799Z,0.80
2022-11-10T18:51:51.299Z,0.90
2022-11-10T18:54:20.821Z,0.90
2022-11-10T18:56:50.411Z,0.70
2022-11-10T18:59:20.122Z,0.80
2022-11-10T19:01:50.930Z,0.90
2022-11-10T19:04:20.708Z,0.90
2022-11-10T19:06:50.609Z,0.90
2022-11-10T19:09:20.355Z,0.80
2022-11-10T19:11:49.852Z,1.10
2022-11-10T19:14:19.243Z,1.00
2022-11-10T19:16:49.159Z,0.80
2022-11-10T19:19:19.581Z,1.00
2022-11-10T19:21:50.843Z,0.60
2022-11-10T19:24:27.700Z,0.70
2022-11-10T19:26:57.800Z,0.80
2022-11-10T19:29:27.262Z,0.90
2022-11-10T19:31:56.925Z,1.20
2022-11-10T19:34:26.397Z,0.90
2022-11-10T19:36:55.915Z,0.80
2022-11-10T19:39:25.361Z,0.80
2022-11-10T19:41:55.240Z,0.90
2022-11-10T19:44:24.664Z,1.00
2022-11-10T19:46:53.969Z,0.80
2022-11-10T19:49:23.546Z,1.10
2022-11-10T19:51:53.212Z,0.90
2022-11-10T19:54:22.814Z,1.00
2022-11-10T19:56:52.609Z,1.20
2022-11-10T19:59:22.558Z,1.10
2022-11-10T20:01:52.612Z,1.00
2022-11-10T20:04:23.175Z,0.90
2022-11-10T20:07:12.767Z,1.10
2022-11-10T20:09:42.472Z,1.10
2022-11-10T20:12:12.067Z,1.00
2022-11-10T20:14:41.506Z,0.90
2022-11-10T20:17:10.985Z,1.10
2022-11-10T20:19:41.305Z,1.00
2022-11-10T20:22:13.800Z,0.80
2022-11-10T20:24:50.055Z,1.10
2022-11-10T20:27:20.617Z,0.90
2022-11-10T20:29:50.083Z,1.10
2022-11-10T20:32:19.484Z,1.10
2022-11-10T20:34:48.919Z,1.00
2022-11-10T20:37:18.413Z,1.00
2022-11-10T20:39:48.262Z,1.20
2022-11-10T20:42:18.491Z,1.30
2022-11-10T20:44:48.302Z,1.20
2022-11-10T20:47:17.900Z,1.10
2022-11-10T20:49:47.333Z,0.90
2022-11-10T20:52:16.913Z,1.00
2022-11-10T20:54:46.400Z,1.00
2022-11-10T20:57:15.964Z,1.20
2022-11-10T20:59:45.147Z,0.80
2022-11-10T21:02:15.103Z,1.00
2022-11-10T21:04:44.495Z,0.70
2022-11-10T21:07:13.971Z,0.90
2022-11-10T21:09:43.207Z,0.80
2022-11-10T21:12:33.777Z,1.00
2022-11-10T21:15:02.860Z,0.80
2022-11-10T21:17:32.167Z,1.00
2022-11-10T21:20:01.509Z,0.70
2022-11-10T21:22:30.772Z,1.00
2022-11-10T21:25:00.234Z,0.90
2022-11-10T21:27:29.424Z,0.80
2022-11-10T21:29:59.859Z,1.20
2022-11-10T21:32:29.604Z,0.80
2022-11-10T21:34:58.831Z,0.80
2022-11-10T21:37:28.064Z,0.70
2022-11-10T21:39:57.543Z,1.00
2022-11-10T21:42:28.531Z,0.80
2022-11-10T21:44:59.985Z,0.70
2022-11-10T21:47:29.724Z,1.10
2022-11-10T21:49:58.915Z,1.10
2022-11-10T21:52:31.152Z,1.00
2022-11-10T21:55:01.368Z,0.80
2022-11-10T21:57:30.840Z,1.00
2022-11-10T22:00:00.235Z,1.00
2022-11-10T22:02:29.641Z,1.20
2022-11-10T22:04:58.819Z,0.90
2022-11-10T22:07:28.160Z,1.10
2022-11-10T22:10:33.528Z,0.80
2022-11-10T22:13:21.016Z,1.10
2022-11-10T22:16:09.676Z,0.90
2022-11-10T22:18:39.031Z,1.10
2022-11-10T22:21:10.504Z,0.90
2022-11-10T22:23:58.405Z,1.00
2022-11-10T22:26:28.040Z,1.10
2022-11-10T22:28:58.098Z,1.10
2022-11-10T22:31:29.651Z,0.80
2022-11-10T22:33:59.438Z,1.10
2022-11-10T22:36:28.806Z,1.10
2022-11-10T22:39:03.167Z,1.00
2022-11-10T22:41:51.240Z,1.00
2022-11-10T22:44:24.845Z,0.90
2022-11-10T22:46:54.887Z,0.90
2022-11-10T22:49:26.304Z,1.00
2022-11-10T22:51:56.559Z,1.20
2022-11-10T22:54:26.466Z,1.00
2022-11-10T22:56:55.730Z,1.00
2022-11-10T22:59:25.020Z,1.00
2022-11-10T23:01:54.362Z,0.80
2022-11-10T23:04:23.811Z,1.30
2022-11-10T23:06:53.397Z,1.30
2022-11-10T23:09:22.849Z,0.80
2022-11-10T23:11:52.131Z,1.10
2022-11-10T23:14:21.497Z,1.30
2022-11-10T23:16:50.900Z,1.30
2022-11-10T23:19:20.275Z,1.10
2022-11-10T23:21:49.933Z,1.00
2022-11-10T23:24:23.222Z,1.10
2022-11-10T23:26:52.630Z,0.80
2022-11-10T23:29:21.838Z,1.80
2022-11-10T23:31:51.242Z,1.60
2022-11-10T23:34:20.618Z,1.20
2022-11-10T23:36:50.231Z,1.20
2022-11-10T23:39:20.313Z,1.30
2022-11-10T23:41:49.852Z,1.40
2022-11-10T23:44:19.122Z,1.30
2022-11-10T23:46:48.502Z,1.70
2022-11-10T23:49:18.023Z,1.50
2022-11-10T23:51:47.443Z,1.40
2022-11-10T23:54:16.808Z,1.80
2022-11-10T23:56:45.767Z,1.90
2022-11-10T23:59:14.933Z,1.20
